Terminal Aerodrome Forecast
Issued by NWS

Home | Current Version | Previous Version | Text Only | Print | Product List | Glossary On
Versions: 1 2 3 4 5 6 7 8 9 10 11 12 13 14 15 16 17 18 19 20
000
FTUS43 KMQT 292300
TAFSAW
TAF
KSAW 292325Z 3000/3024 18009KT 1 1/2SM BR OVC003
     FM300400 20005KT 4SM SHRA BR OVC009
     FM301100 35003KT 1SM -SHRA BR OVC003
     FM301800 35008KT 5SM BR OVC007
     FM302100 35007KT P6SM OVC015
      AMD LTD TO CLD VIS AND WIND 3002/3010=

USA.gov is the U.S. government's official web portal to all federal, state and local government web resources and services.